Time,TemperatureF,DewpointF,PressureIn,WindDirection,WindDirectionDegrees,WindSpeedMPH,WindSpeedGustMPH,Humidity,HourlyPrecipIn,Conditions,Clouds,dailyrainin,SoftwareType,DateUTC
2013-07-24 00:00:00,85.9,72.3,29.80,SSW,194,4.0,4.0,64,0.00,,,0.00,Wunderground v.1.15,2013-07-24 05:00:00,
2013-07-24 00:05:00,85.9,72.3,29.80,SSW,209,4.0,4.0,64,0.00,,,0.00,Wunderground v.1.15,2013-07-24 05:05:00,
2013-07-24 00:10:00,85.7,72.6,29.79,SSW,196,4.0,4.0,65,0.00,,,0.00,Wunderground v.1.15,2013-07-24 05:10:00,
2013-07-24 00:15:00,85.4,72.3,29.79,South,171,4.0,4.0,65,0.00,,,0.00,Wunderground v.1.15,2013-07-24 05:15:00,
2013-07-24 00:25:00,85.1,72.5,29.79,SSW,212,4.0,5.0,66,0.00,,,0.00,Wunderground v.1.15,2013-07-24 05:25:00,
2013-07-24 00:30:00,84.8,72.2,29.80,SSW,208,4.0,4.0,66,0.00,,,0.00,Wunderground v.1.15,2013-07-24 05:30:00,
2013-07-24 00:40:00,84.6,72.0,29.82,South,188,3.0,3.0,66,0.00,,,0.00,Wunderground v.1.15,2013-07-24 05:40:00,
2013-07-24 00:45:00,84.7,72.1,29.82,South,189,3.0,3.0,66,0.00,,,0.00,Wunderground v.1.15,2013-07-24 05:45:00,
2013-07-24 00:50:00,84.7,71.6,29.82,South,185,4.0,6.0,65,0.00,,,0.00,Wunderground v.1.15,2013-07-24 05:50:00,
2013-07-24 00:55:00,84.8,71.7,29.82,SSW,192,5.0,6.0,65,0.00,,,0.00,Wunderground v.1.15,2013-07-24 05:55:00,
2013-07-24 01:00:00,84.7,71.2,29.82,South,174,5.0,5.0,64,0.00,,,0.00,Wunderground v.1.15,2013-07-24 06:00:00,
2013-07-24 01:05:00,84.5,71.4,29.82,South,176,4.0,5.0,65,0.00,,,0.00,Wunderground v.1.15,2013-07-24 06:05:00,
2013-07-24 01:15:00,84.0,71.4,29.82,South,191,4.0,6.0,66,0.00,,,0.00,Wunderground v.1.15,2013-07-24 06:15:00,
2013-07-24 01:20:00,83.8,71.2,29.82,South,180,5.0,6.0,66,0.00,,,0.00,Wunderground v.1.15,2013-07-24 06:20:00,
2013-07-24 01:30:00,83.2,71.5,29.82,South,177,5.0,5.0,68,0.00,,,0.00,Wunderground v.1.15,2013-07-24 06:30:00,
2013-07-24 01:35:00,83.1,71.4,29.82,South,189,5.0,6.0,68,0.00,,,0.00,Wunderground v.1.15,2013-07-24 06:35:00,
2013-07-24 01:45:00,82.9,71.3,29.82,South,186,4.0,5.0,68,0.00,,,0.00,Wunderground v.1.15,2013-07-24 06:45:00,
2013-07-24 01:50:00,82.8,71.2,29.82,South,175,5.0,6.0,68,0.00,,,0.00,Wunderground v.1.15,2013-07-24 06:50:00,
2013-07-24 01:55:00,82.7,71.1,29.82,South,176,6.0,6.0,68,0.00,,,0.00,Wunderground v.1.15,2013-07-24 06:55:00,
2013-07-24 02:00:00,82.6,71.0,29.82,South,174,6.0,6.0,68,0.00,,,0.00,Wunderground v.1.15,2013-07-24 07:00:00,
2013-07-24 02:05:00,82.5,70.9,29.82,South,188,5.0,8.0,68,0.00,,,0.00,Wunderground v.1.15,2013-07-24 07:05:00,
2013-07-24 02:15:00,82.5,70.4,29.82,South,175,5.0,5.0,67,0.00,,,0.00,Wunderground v.1.15,2013-07-24 07:15:00,
2013-07-24 02:20:00,82.5,70.4,29.82,South,190,4.0,5.0,67,0.00,,,0.00,Wunderground v.1.15,2013-07-24 07:20:00,
2013-07-24 02:25:00,82.6,70.1,29.82,South,179,4.0,5.0,66,0.00,,,0.00,Wunderground v.1.15,2013-07-24 07:25:00,
2013-07-24 02:30:00,82.5,70.0,29.82,South,189,5.0,5.0,66,0.00,,,0.00,Wunderground v.1.15,2013-07-24 07:30:00,
2013-07-24 02:35:00,82.5,70.0,29.82,South,180,5.0,5.0,66,0.00,,,0.00,Wunderground v.1.15,2013-07-24 07:35:00,
2013-07-24 02:45:00,82.3,69.8,29.81,South,178,5.0,5.0,66,0.00,,,0.00,Wunderground v.1.15,2013-07-24 07:45:00,
2013-07-24 02:50:00,82.2,69.7,29.82,SSE,166,5.0,5.0,66,0.00,,,0.00,Wunderground v.1.15,2013-07-24 07:50:00,
2013-07-24 02:55:00,82.0,69.5,29.82,South,173,4.0,5.0,66,0.00,,,0.00,Wunderground v.1.15,2013-07-24 07:55:00,
2013-07-24 03:00:00,81.8,69.8,29.82,South,187,5.0,6.0,67,0.00,,,0.00,Wunderground v.1.15,2013-07-24 08:00:00,
2013-07-24 03:05:00,81.6,69.1,29.81,SSE,165,5.0,6.0,66,0.00,,,0.00,Wunderground v.1.15,2013-07-24 08:05:00,
2013-07-24 03:10:00,81.6,69.1,29.81,SSE,165,5.0,5.0,66,0.00,,,0.00,Wunderground v.1.15,2013-07-24 08:10:00,
2013-07-24 03:15:00,81.6,69.1,29.82,South,175,5.0,5.0,66,0.00,,,0.00,Wunderground v.1.15,2013-07-24 08:15:00,
2013-07-24 03:20:00,81.6,69.1,29.82,SSE,168,3.0,4.0,66,0.00,,,0.00,Wunderground v.1.15,2013-07-24 08:20:00,
2013-07-24 03:30:00,81.8,69.3,29.82,South,175,4.0,4.0,66,0.00,,,0.00,Wunderground v.1.15,2013-07-24 08:30:00,
2013-07-24 03:40:00,81.7,68.8,29.84,SSE,147,3.0,3.0,65,0.00,,,0.00,Wunderground v.1.15,2013-07-24 08:40:00,
2013-07-24 03:45:00,81.8,68.9,29.84,SE,146,3.0,3.0,65,0.00,,,0.00,Wunderground v.1.15,2013-07-24 08:45:00,
2013-07-24 03:55:00,81.9,69.0,29.85,SE,142,3.0,4.0,65,0.00,,,0.00,Wunderground v.1.15,2013-07-24 08:55:00,
2013-07-24 04:00:00,81.9,69.0,29.85,SSE,152,3.0,3.0,65,0.00,,,0.00,Wunderground v.1.15,2013-07-24 09:00:00,
2013-07-24 04:05:00,82.0,69.5,29.90,ENE,76,4.0,16.0,66,0.00,,,0.00,Wunderground v.1.15,2013-07-24 09:05:00,
2013-07-24 04:10:00,80.8,68.4,29.91,NE,53,10.0,14.0,66,0.00,,,0.00,Wunderground v.1.15,2013-07-24 09:10:00,
2013-07-24 04:20:00,74.9,66.1,29.95,NE,51,22.0,22.0,74,0.00,,,0.00,Wunderground v.1.15,2013-07-24 09:20:00,
2013-07-24 04:30:00,72.0,66.2,29.96,East,96,19.0,20.0,82,0.36,,,0.02,Wunderground v.1.15,2013-07-24 09:30:00,
2013-07-24 04:40:00,70.0,66.0,29.93,NE,38,14.0,14.0,87,0.08,,,0.03,Wunderground v.1.15,2013-07-24 09:40:00,
2013-07-24 04:45:00,69.3,65.9,29.93,East,90,15.0,15.0,89,0.33,,,0.06,Wunderground v.1.15,2013-07-24 09:45:00,
2013-07-24 04:55:00,69.0,66.3,29.94,NE,45,12.0,14.0,91,0.06,,,0.07,Wunderground v.1.15,2013-07-24 09:55:00,
2013-07-24 05:00:00,68.9,66.2,29.93,East,85,11.0,17.0,91,0.06,,,0.07,Wunderground v.1.15,2013-07-24 10:00:00,
2013-07-24 05:05:00,68.9,66.2,29.93,East,101,11.0,17.0,91,0.05,,,0.07,Wunderground v.1.15,2013-07-24 10:05:00,
2013-07-24 05:10:00,68.9,66.2,29.94,East,82,12.0,12.0,91,0.04,,,0.07,Wunderground v.1.15,2013-07-24 10:10:00,
2013-07-24 05:15:00,68.9,66.2,29.94,ENE,74,12.0,12.0,91,0.00,,,0.07,Wunderground v.1.15,2013-07-24 10:15:00,
2013-07-24 05:20:00,69.0,66.3,29.93,East,97,12.0,12.0,91,0.00,,,0.07,Wunderground v.1.15,2013-07-24 10:20:00,
2013-07-24 05:25:00,69.0,66.3,29.94,East,81,11.0,12.0,91,0.00,,,0.07,Wunderground v.1.15,2013-07-24 10:25:00,
2013-07-24 05:30:00,69.0,66.3,29.94,NE,46,9.0,9.0,91,0.00,,,0.07,Wunderground v.1.15,2013-07-24 10:30:00,
2013-07-24 05:35:00,69.0,66.3,29.95,East,100,9.0,9.0,91,0.00,,,0.07,Wunderground v.1.15,2013-07-24 10:35:00,
2013-07-24 05:40:00,69.0,66.3,29.95,ENE,63,9.0,10.0,91,0.00,,,0.07,Wunderground v.1.15,2013-07-24 10:40:00,
2013-07-24 05:50:00,69.1,66.7,29.94,ESE,122,9.0,10.0,92,0.00,,,0.07,Wunderground v.1.15,2013-07-24 10:50:00,
2013-07-24 06:00:00,69.1,66.4,29.93,East,85,8.0,8.0,91,0.00,,,0.07,Wunderground v.1.15,2013-07-24 11:00:00,
2013-07-24 06:05:00,69.2,66.8,29.93,ESE,105,7.0,10.0,92,0.00,,,0.07,Wunderground v.1.15,2013-07-24 11:05:00,
2013-07-24 06:10:00,69.4,67.0,29.93,SE,137,6.0,9.0,92,0.00,,,0.07,Wunderground v.1.15,2013-07-24 11:10:00,
2013-07-24 06:15:00,69.4,66.7,29.93,SE,139,5.0,9.0,91,0.00,,,0.07,Wunderground v.1.15,2013-07-24 11:15:00,
2013-07-24 06:20:00,69.4,66.7,29.92,SE,124,7.0,7.0,91,0.00,,,0.07,Wunderground v.1.15,2013-07-24 11:20:00,
2013-07-24 06:30:00,69.5,67.1,29.94,ESE,123,6.0,6.0,92,0.21,,,0.13,Wunderground v.1.15,2013-07-24 11:30:00,
2013-07-24 06:35:00,69.5,67.1,29.94,SE,130,6.0,6.0,92,0.08,,,0.13,Wunderground v.1.15,2013-07-24 11:35:00,
2013-07-24 06:40:00,69.6,67.2,29.93,SE,124,5.0,8.0,92,0.05,,,0.13,Wunderground v.1.15,2013-07-24 11:40:00,
2013-07-24 06:45:00,69.6,67.2,29.92,SE,129,6.0,8.0,92,0.00,,,0.13,Wunderground v.1.15,2013-07-24 11:45:00,
2013-07-24 06:50:00,69.6,67.2,29.92,SE,126,7.0,7.0,92,0.00,,,0.13,Wunderground v.1.15,2013-07-24 11:50:00,
2013-07-24 07:00:00,69.7,67.3,29.94,SE,124,6.0,6.0,92,0.00,,,0.13,Wunderground v.1.15,2013-07-24 12:00:00,
2013-07-24 07:05:00,69.7,67.3,29.95,SSE,155,6.0,6.0,92,0.00,,,0.13,Wunderground v.1.15,2013-07-24 12:05:00,
2013-07-24 07:10:00,69.7,67.3,29.97,ESE,108,5.0,7.0,92,0.00,,,0.13,Wunderground v.1.15,2013-07-24 12:10:00,
2013-07-24 07:20:00,70.0,67.6,30.02,NE,47,8.0,8.0,92,0.00,,,0.13,Wunderground v.1.15,2013-07-24 12:20:00,
2013-07-24 07:25:00,69.6,66.5,30.04,North,350,12.0,12.0,90,1.73,,,0.19,Wunderground v.1.15,2013-07-24 12:25:00,
2013-07-24 07:30:00,68.8,66.1,30.06,NNW,333,11.0,11.0,91,0.40,,,0.23,Wunderground v.1.15,2013-07-24 12:30:00,
2013-07-24 07:40:00,67.7,65.0,30.05,NNE,15,8.0,8.0,91,2.80,,,0.49,Wunderground v.1.15,2013-07-24 12:40:00,
2013-07-24 07:50:00,67.2,64.8,30.02,ENE,65,5.0,5.0,92,0.73,,,0.70,Wunderground v.1.15,2013-07-24 12:50:00,
2013-07-24 07:55:00,67.2,64.8,30.02,East,82,4.0,5.0,92,0.32,,,0.73,Wunderground v.1.15,2013-07-24 12:55:00,
2013-07-24 08:00:00,67.3,64.9,30.01,SE,128,4.0,4.0,92,0.16,,,0.74,Wunderground v.1.15,2013-07-24 13:00:00,
2013-07-24 08:05:00,67.3,64.9,30.01,SSE,156,4.0,4.0,92,0.12,,,0.75,Wunderground v.1.15,2013-07-24 13:05:00,
2013-07-24 08:15:00,67.4,65.3,30.00,SSE,152,4.0,4.0,93,0.04,,,0.75,Wunderground v.1.15,2013-07-24 13:15:00,
2013-07-24 08:20:00,67.5,65.4,30.00,SE,124,4.0,6.0,93,0.00,,,0.76,Wunderground v.1.15,2013-07-24 13:20:00,
2013-07-24 08:30:00,67.6,65.5,29.98,SSE,163,7.0,7.0,93,0.00,,,0.76,Wunderground v.1.15,2013-07-24 13:30:00,
2013-07-24 08:35:00,67.7,65.6,29.98,SSE,159,6.0,7.0,93,0.00,,,0.76,Wunderground v.1.15,2013-07-24 13:35:00,
2013-07-24 09:30:00,67.7,65.9,29.94,SW,215,13.0,16.0,94,0.09,,,0.81,Wunderground v.1.15,2013-07-24 14:30:00,
2013-07-24 09:40:00,67.5,65.7,29.91,South,186,16.0,17.0,94,0.12,,,0.83,Wunderground v.1.15,2013-07-24 14:40:00,
2013-07-24 09:45:00,67.7,65.9,29.92,South,188,16.0,17.0,94,0.08,,,0.84,Wunderground v.1.15,2013-07-24 14:45:00,
2013-07-24 09:50:00,67.9,65.8,29.92,South,175,14.0,14.0,93,0.08,,,0.84,Wunderground v.1.15,2013-07-24 14:50:00,
2013-07-24 09:55:00,68.0,65.9,29.91,South,184,13.0,18.0,93,0.05,,,0.84,Wunderground v.1.15,2013-07-24 14:55:00,
2013-07-24 10:00:00,68.1,66.0,29.89,South,180,13.0,21.0,93,0.00,,,0.84,Wunderground v.1.15,2013-07-24 15:00:00,
2013-07-24 10:10:00,68.5,66.1,29.87,SSW,196,13.0,13.0,92,0.00,,,0.85,Wunderground v.1.15,2013-07-24 15:10:00,
2013-07-24 10:15:00,68.9,66.2,29.89,SSW,207,12.0,13.0,91,0.00,,,0.85,Wunderground v.1.15,2013-07-24 15:15:00,
2013-07-24 10:25:00,69.2,66.1,29.89,WSW,240,11.0,13.0,90,0.00,,,0.85,Wunderground v.1.15,2013-07-24 15:25:00,
2013-07-24 10:30:00,69.4,66.3,29.90,SSW,213,10.0,10.0,90,0.00,,,0.85,Wunderground v.1.15,2013-07-24 15:30:00,
2013-07-24 10:40:00,70.2,66.8,29.91,SSW,197,7.0,7.0,89,0.00,,,0.85,Wunderground v.1.15,2013-07-24 15:40:00,
2013-07-24 10:45:00,70.7,67.3,29.91,SSW,193,6.0,7.0,89,0.00,,,0.85,Wunderground v.1.15,2013-07-24 15:45:00,
2013-07-24 10:50:00,71.2,67.8,29.92,SW,225,5.0,5.0,89,0.00,,,0.85,Wunderground v.1.15,2013-07-24 15:50:00,
2013-07-24 11:00:00,72.0,67.9,29.92,SW,229,3.0,3.0,87,0.00,,,0.85,Wunderground v.1.15,2013-07-24 16:00:00,
2013-07-24 11:05:00,72.3,67.9,29.92,SSW,211,2.0,3.0,86,0.00,,,0.85,Wunderground v.1.15,2013-07-24 16:05:00,
2013-07-24 11:10:00,72.6,68.2,29.92,WSW,247,2.0,2.0,86,0.00,,,0.85,Wunderground v.1.15,2013-07-24 16:10:00,
2013-07-24 11:15:00,72.9,67.8,29.91,SW,223,2.0,2.0,84,0.00,,,0.85,Wunderground v.1.15,2013-07-24 16:15:00,
2013-07-24 11:20:00,73.1,67.6,29.91,SSW,195,3.0,6.0,83,0.00,,,0.85,Wunderground v.1.15,2013-07-24 16:20:00,
2013-07-24 11:25:00,73.4,67.9,29.91,SW,215,3.0,6.0,83,0.00,,,0.85,Wunderground v.1.15,2013-07-24 16:25:00,
2013-07-24 11:35:00,73.9,67.7,29.91,SSW,209,4.0,5.0,81,0.00,,,0.85,Wunderground v.1.15,2013-07-24 16:35:00,
2013-07-24 11:45:00,75.1,68.5,29.92,SSW,209,1.0,3.0,80,0.00,,,0.85,Wunderground v.1.15,2013-07-24 16:45:00,
2013-07-24 11:50:00,75.7,68.4,29.91,SSW,211,1.0,3.0,78,0.00,,,0.85,Wunderground v.1.15,2013-07-24 16:50:00,
2013-07-24 11:55:00,76.0,68.3,29.91,SSW,193,2.0,3.0,77,0.00,,,0.85,Wunderground v.1.15,2013-07-24 16:55:00,
2013-07-24 12:05:00,76.9,69.1,29.91,SSW,193,0.0,2.0,77,0.00,,,0.85,Wunderground v.1.15,2013-07-24 17:05:00,
2013-07-24 12:15:00,77.7,69.1,29.92,NW,313,0.0,0.0,75,0.00,,,0.85,Wunderground v.1.15,2013-07-24 17:15:00,
2013-07-24 12:20:00,78.4,69.8,29.91,SW,235,1.0,2.0,75,0.00,,,0.85,Wunderground v.1.15,2013-07-24 17:20:00,
2013-07-24 12:30:00,79.3,70.3,29.91,West,271,1.0,1.0,74,0.00,,,0.85,Wunderground v.1.15,2013-07-24 17:30:00,
2013-07-24 12:35:00,79.7,69.9,29.92,WNW,298,1.0,1.0,72,0.00,,,0.85,Wunderground v.1.15,2013-07-24 17:35:00,
2013-07-24 12:40:00,79.9,70.5,29.91,North,360,2.0,2.0,73,0.00,,,0.85,Wunderground v.1.15,2013-07-24 17:40:00,
2013-07-24 12:50:00,80.4,69.3,29.91,NNW,334,2.0,2.0,69,0.00,,,0.85,Wunderground v.1.15,2013-07-24 17:50:00,
2013-07-24 12:55:00,80.8,70.5,29.92,NE,55,2.0,2.0,71,0.00,,,0.85,Wunderground v.1.15,2013-07-24 17:55:00,
2013-07-24 13:00:00,81.3,69.7,29.92,NNW,332,2.0,2.0,68,0.00,,,0.85,Wunderground v.1.15,2013-07-24 18:00:00,
2013-07-24 13:10:00,81.9,70.3,29.92,NNE,31,2.0,5.0,68,0.00,,,0.85,Wunderground v.1.15,2013-07-24 18:10:00,
2013-07-24 13:15:00,82.1,70.1,29.92,NNE,33,3.0,5.0,67,0.00,,,0.85,Wunderground v.1.15,2013-07-24 18:15:00,
2013-07-24 13:20:00,82.5,70.9,29.92,North,5,4.0,4.0,68,0.00,,,0.85,Wunderground v.1.15,2013-07-24 18:20:00,
2013-07-24 13:25:00,83.0,71.3,29.92,NNE,13,3.0,4.0,68,0.00,,,0.85,Wunderground v.1.15,2013-07-24 18:25:00,
2013-07-24 13:30:00,83.2,70.7,29.92,NNE,28,3.0,3.0,66,0.00,,,0.85,Wunderground v.1.15,2013-07-24 18:30:00,
2013-07-24 13:35:00,83.2,70.7,29.92,NNE,17,4.0,4.0,66,0.00,,,0.85,Wunderground v.1.15,2013-07-24 18:35:00,
2013-07-24 13:40:00,83.5,71.4,29.92,NE,43,3.0,3.0,67,0.00,,,0.85,Wunderground v.1.15,2013-07-24 18:40:00,
2013-07-24 13:45:00,83.8,71.2,29.92,NNE,13,3.0,5.0,66,0.00,,,0.85,Wunderground v.1.15,2013-07-24 18:45:00,
2013-07-24 13:55:00,83.8,71.2,29.92,NNE,26,3.0,8.0,66,0.00,,,0.85,Wunderground v.1.15,2013-07-24 18:55:00,
2013-07-24 14:00:00,83.9,70.9,29.92,NE,45,5.0,5.0,65,0.00,,,0.85,Wunderground v.1.15,2013-07-24 19:00:00,
2013-07-24 14:05:00,84.1,71.5,29.92,NE,42,5.0,5.0,66,0.00,,,0.85,Wunderground v.1.15,2013-07-24 19:05:00,
2013-07-24 14:10:00,84.5,71.4,29.92,NNE,24,4.0,4.0,65,0.00,,,0.85,Wunderground v.1.15,2013-07-24 19:10:00,
2013-07-24 14:20:00,85.3,71.3,29.92,North,355,5.0,5.0,63,0.00,,,0.85,Wunderground v.1.15,2013-07-24 19:20:00,
2013-07-24 14:25:00,85.4,70.9,29.92,NE,47,5.0,5.0,62,0.00,,,0.85,Wunderground v.1.15,2013-07-24 19:25:00,
2013-07-24 14:35:00,86.0,70.5,29.92,NE,40,5.0,9.0,60,0.00,,,0.85,Wunderground v.1.15,2013-07-24 19:35:00,
2013-07-24 14:45:00,86.5,71.5,29.92,NE,36,6.0,6.0,61,0.00,,,0.85,Wunderground v.1.15,2013-07-24 19:45:00,
2013-07-24 14:50:00,86.7,71.2,29.92,NE,46,6.0,6.0,60,0.00,,,0.85,Wunderground v.1.15,2013-07-24 19:50:00,
2013-07-24 14:55:00,87.2,71.6,29.92,NE,41,5.0,6.0,60,0.00,,,0.85,Wunderground v.1.15,2013-07-24 19:55:00,
2013-07-24 15:00:00,87.5,72.4,29.92,NNE,32,4.0,4.0,61,0.00,,,0.85,Wunderground v.1.15,2013-07-24 20:00:00,
2013-07-24 15:05:00,87.5,71.9,29.92,NNE,32,4.0,4.0,60,0.00,,,0.85,Wunderground v.1.15,2013-07-24 20:05:00,
2013-07-24 15:10:00,87.7,73.1,29.92,NNE,12,4.0,4.0,62,0.00,,,0.85,Wunderground v.1.15,2013-07-24 20:10:00,
2013-07-24 15:20:00,87.4,72.3,29.92,ENE,69,7.0,7.0,61,0.00,,,0.85,Wunderground v.1.15,2013-07-24 20:20:00,
2013-07-24 15:25:00,87.6,73.0,29.92,East,82,7.0,7.0,62,0.00,,,0.85,Wunderground v.1.15,2013-07-24 20:25:00,
2013-07-24 15:30:00,88.1,72.5,29.92,East,83,6.0,8.0,60,0.00,,,0.85,Wunderground v.1.15,2013-07-24 20:30:00,
2013-07-24 15:35:00,88.1,73.0,29.92,NE,46,6.0,8.0,61,0.00,,,0.85,Wunderground v.1.15,2013-07-24 20:35:00,
2013-07-24 15:40:00,87.9,72.3,29.92,NNE,32,7.0,7.0,60,0.00,,,0.85,Wunderground v.1.15,2013-07-24 20:40:00,
2013-07-24 15:45:00,87.9,72.3,29.92,ESE,105,6.0,15.0,60,0.00,,,0.85,Wunderground v.1.15,2013-07-24 20:45:00,
2013-07-24 15:50:00,87.9,71.8,29.91,East,81,7.0,7.0,59,0.00,,,0.85,Wunderground v.1.15,2013-07-24 20:50:00,
2013-07-24 16:00:00,88.0,71.9,29.92,NE,49,6.0,6.0,59,0.00,,,0.85,Wunderground v.1.15,2013-07-24 21:00:00,
2013-07-24 16:05:00,87.7,71.6,29.91,NNE,17,6.0,6.0,59,0.00,,,0.85,Wunderground v.1.15,2013-07-24 21:05:00,
2013-07-24 16:10:00,87.7,72.1,29.91,NE,45,7.0,7.0,60,0.00,,,0.85,Wunderground v.1.15,2013-07-24 21:10:00,
2013-07-24 16:15:00,88.3,71.6,29.91,NNE,17,6.0,7.0,58,0.00,,,0.85,Wunderground v.1.15,2013-07-24 21:15:00,
2013-07-24 16:20:00,88.2,71.6,29.91,NE,39,6.0,9.0,58,0.00,,,0.85,Wunderground v.1.15,2013-07-24 21:20:00,
2013-07-24 16:30:00,88.3,71.6,29.91,ENE,57,7.0,7.0,58,0.00,,,0.85,Wunderground v.1.15,2013-07-24 21:30:00,
2013-07-24 16:35:00,88.3,71.1,29.90,NNE,15,7.0,7.0,57,0.00,,,0.85,Wunderground v.1.15,2013-07-24 21:35:00,
2013-07-24 16:40:00,88.5,70.8,29.90,ENE,71,7.0,8.0,56,0.00,,,0.85,Wunderground v.1.15,2013-07-24 21:40:00,
2013-07-24 16:50:00,89.1,69.2,29.90,NNE,30,6.0,6.0,52,0.00,,,0.85,Wunderground v.1.15,2013-07-24 21:50:00,
2013-07-24 16:55:00,88.8,70.5,29.90,NE,35,6.0,6.0,55,0.00,,,0.85,Wunderground v.1.15,2013-07-24 21:55:00,
2013-07-24 17:05:00,88.5,70.8,29.90,NNE,27,7.0,9.0,56,0.00,,,0.85,Wunderground v.1.15,2013-07-24 22:05:00,
2013-07-24 17:10:00,88.4,70.7,29.90,NE,54,7.0,7.0,56,0.00,,,0.85,Wunderground v.1.15,2013-07-24 22:10:00,
2013-07-24 17:15:00,88.4,71.2,29.90,East,79,6.0,10.0,57,0.00,,,0.85,Wunderground v.1.15,2013-07-24 22:15:00,
2013-07-24 17:20:00,88.2,71.0,29.90,ENE,65,6.0,6.0,57,0.00,,,0.85,Wunderground v.1.15,2013-07-24 22:20:00,
2013-07-24 17:25:00,88.3,70.6,29.90,NE,47,5.0,6.0,56,0.00,,,0.85,Wunderground v.1.15,2013-07-24 22:25:00,
2013-07-24 17:30:00,88.4,70.7,29.90,ENE,78,5.0,5.0,56,0.00,,,0.85,Wunderground v.1.15,2013-07-24 22:30:00,
2013-07-24 17:35:00,88.3,70.6,29.90,NNE,30,6.0,6.0,56,0.00,,,0.85,Wunderground v.1.15,2013-07-24 22:35:00,
2013-07-24 17:45:00,88.5,70.8,29.90,East,86,6.0,6.0,56,0.00,,,0.85,Wunderground v.1.15,2013-07-24 22:45:00,
2013-07-24 17:50:00,88.3,71.1,29.90,ESE,111,5.0,5.0,57,0.00,,,0.85,Wunderground v.1.15,2013-07-24 22:50:00,
2013-07-24 17:55:00,88.6,71.4,29.90,ESE,103,5.0,5.0,57,0.00,,,0.85,Wunderground v.1.15,2013-07-24 22:55:00,
2013-07-24 18:00:00,88.2,71.0,29.90,East,96,5.0,5.0,57,0.00,,,0.85,Wunderground v.1.15,2013-07-24 23:00:00,
2013-07-24 18:05:00,87.8,71.7,29.90,East,98,6.0,6.0,59,0.00,,,0.85,Wunderground v.1.15,2013-07-24 23:05:00,
2013-07-24 18:15:00,87.9,71.8,29.90,ENE,67,7.0,7.0,59,0.00,,,0.85,Wunderground v.1.15,2013-07-24 23:15:00,
2013-07-24 18:20:00,87.6,72.0,29.90,East,101,7.0,7.0,60,0.00,,,0.85,Wunderground v.1.15,2013-07-24 23:20:00,
2013-07-24 18:25:00,87.3,71.7,29.90,ENE,77,6.0,10.0,60,0.00,,,0.85,Wunderground v.1.15,2013-07-24 23:25:00,
2013-07-24 18:30:00,87.2,71.6,29.90,East,85,7.0,7.0,60,0.00,,,0.85,Wunderground v.1.15,2013-07-24 23:30:00,
2013-07-24 18:35:00,86.9,71.8,29.90,ENE,74,7.0,8.0,61,0.00,,,0.85,Wunderground v.1.15,2013-07-24 23:35:00,
2013-07-24 18:40:00,86.6,71.5,29.90,East,80,6.0,6.0,61,0.00,,,0.85,Wunderground v.1.15,2013-07-24 23:40:00,
2013-07-24 18:45:00,86.6,72.0,29.90,East,87,5.0,6.0,62,0.00,,,0.85,Wunderground v.1.15,2013-07-24 23:45:00,
2013-07-24 18:55:00,87.3,72.2,29.90,NE,47,5.0,5.0,61,0.00,,,0.85,Wunderground v.1.15,2013-07-24 23:55:00,
2013-07-24 19:00:00,87.0,72.4,29.90,East,98,5.0,10.0,62,0.00,,,0.85,Wunderground v.1.15,2013-07-25 00:00:00,
2013-07-24 19:05:00,86.5,71.9,29.91,East,100,5.0,10.0,62,0.00,,,0.85,Wunderground v.1.15,2013-07-25 00:05:00,
2013-07-24 19:10:00,86.3,72.2,29.90,ESE,102,5.0,5.0,63,0.00,,,0.85,Wunderground v.1.15,2013-07-25 00:10:00,
2013-07-24 19:15:00,86.0,71.9,29.90,ESE,118,6.0,8.0,63,0.00,,,0.85,Wunderground v.1.15,2013-07-25 00:15:00,
2013-07-24 19:20:00,85.9,71.8,29.91,East,86,6.0,9.0,63,0.00,,,0.85,Wunderground v.1.15,2013-07-25 00:20:00,
2013-07-24 19:30:00,85.6,72.5,29.91,East,100,6.0,7.0,65,0.00,,,0.85,Wunderground v.1.15,2013-07-25 00:30:00,
2013-07-24 19:40:00,85.4,72.7,29.91,East,99,5.0,5.0,66,0.00,,,0.85,Wunderground v.1.15,2013-07-25 00:40:00,
2013-07-24 19:45:00,85.2,72.6,29.91,SE,134,5.0,5.0,66,0.00,,,0.85,Wunderground v.1.15,2013-07-25 00:45:00,
2013-07-24 20:05:00,84.5,72.8,29.92,SE,129,4.0,4.0,68,0.00,,,0.85,Wunderground v.1.15,2013-07-25 01:05:00,
2013-07-24 20:15:00,83.9,73.1,29.92,SE,130,3.0,5.0,70,0.00,,,0.85,Wunderground v.1.15,2013-07-25 01:15:00,
2013-07-24 20:20:00,83.7,72.9,29.92,SE,134,2.0,2.0,70,0.00,,,0.85,Wunderground v.1.15,2013-07-25 01:20:00,
2013-07-24 20:25:00,83.5,73.1,29.92,SE,134,2.0,4.0,71,0.00,,,0.85,Wunderground v.1.15,2013-07-25 01:25:00,
2013-07-24 20:30:00,83.1,73.1,29.92,ESE,113,3.0,3.0,72,0.00,,,0.85,Wunderground v.1.15,2013-07-25 01:30:00,
2013-07-24 20:35:00,82.9,72.9,29.92,East,88,3.0,3.0,72,0.00,,,0.85,Wunderground v.1.15,2013-07-25 01:35:00,
2013-07-24 20:45:00,82.6,73.1,29.93,ESE,104,2.0,3.0,73,0.00,,,0.85,Wunderground v.1.15,2013-07-25 01:45:00,
2013-07-24 20:55:00,82.3,72.8,29.93,ESE,123,2.0,2.0,73,0.00,,,0.85,Wunderground v.1.15,2013-07-25 01:55:00,
2013-07-24 21:00:00,82.1,73.0,29.93,ESE,115,2.0,3.0,74,0.00,,,0.85,Wunderground v.1.15,2013-07-25 02:00:00,
2013-07-24 21:05:00,81.8,72.7,29.93,ESE,119,3.0,3.0,74,0.00,,,0.85,Wunderground v.1.15,2013-07-25 02:05:00,
2013-07-24 21:10:00,81.6,72.9,29.93,ESE,102,3.0,4.0,75,0.00,,,0.85,Wunderground v.1.15,2013-07-25 02:10:00,
2013-07-24 21:15:00,81.4,73.1,29.93,ESE,115,2.0,4.0,76,0.00,,,0.85,Wunderground v.1.15,2013-07-25 02:15:00,
2013-07-24 21:20:00,81.2,72.9,29.94,ESE,115,2.0,3.0,76,0.00,,,0.85,Wunderground v.1.15,2013-07-25 02:20:00,
2013-07-24 21:25:00,81.0,73.1,29.94,ESE,120,1.0,3.0,77,0.00,,,0.85,Wunderground v.1.15,2013-07-25 02:25:00,
2013-07-24 21:35:00,80.7,72.8,29.95,ESE,117,2.0,4.0,77,0.00,,,0.85,Wunderground v.1.15,2013-07-25 02:35:00,
2013-07-24 21:40:00,80.3,72.8,29.95,SE,130,2.0,2.0,78,0.00,,,0.85,Wunderground v.1.15,2013-07-25 02:40:00,
2013-07-24 21:50:00,79.5,72.4,29.96,SE,139,3.0,3.0,79,0.00,,,0.85,Wunderground v.1.15,2013-07-25 02:50:00,
2013-07-24 21:55:00,79.3,72.6,29.96,SE,135,3.0,3.0,80,0.00,,,0.85,Wunderground v.1.15,2013-07-25 02:55:00,
2013-07-24 22:05:00,79.4,72.7,29.96,South,170,2.0,3.0,80,0.00,,,0.85,Wunderground v.1.15,2013-07-25 03:05:00,
2013-07-24 22:15:00,79.3,72.6,29.97,SE,134,3.0,4.0,80,0.00,,,0.85,Wunderground v.1.15,2013-07-25 03:15:00,
2013-07-24 22:20:00,79.1,72.4,29.97,SE,138,4.0,4.0,80,0.00,,,0.85,Wunderground v.1.15,2013-07-25 03:20:00,
2013-07-24 22:25:00,78.7,72.4,29.97,SE,137,4.0,4.0,81,0.00,,,0.85,Wunderground v.1.15,2013-07-25 03:25:00,
2013-07-24 22:35:00,78.5,72.5,29.98,SE,140,3.0,5.0,82,0.00,,,0.85,Wunderground v.1.15,2013-07-25 03:35:00,
2013-07-24 22:45:00,78.1,72.5,29.98,SE,133,3.0,4.0,83,0.00,,,0.85,Wunderground v.1.15,2013-07-25 03:45:00,
2013-07-24 22:55:00,77.9,72.3,29.98,SE,136,3.0,3.0,83,0.00,,,0.85,Wunderground v.1.15,2013-07-25 03:55:00,
2013-07-24 23:00:00,77.8,72.2,29.98,SE,126,2.0,2.0,83,0.00,,,0.85,Wunderground v.1.15,2013-07-25 04:00:00,
2013-07-24 23:05:00,77.6,72.0,29.98,SE,136,2.0,2.0,83,0.00,,,0.85,Wunderground v.1.15,2013-07-25 04:05:00,
2013-07-24 23:10:00,77.6,72.0,29.98,SE,136,1.0,1.0,83,0.00,,,0.85,Wunderground v.1.15,2013-07-25 04:10:00,
2013-07-24 23:20:00,77.6,72.0,29.98,SE,136,1.0,1.0,83,0.00,,,0.85,Wunderground v.1.15,2013-07-25 04:20:00,
2013-07-24 23:25:00,77.6,72.0,29.99,SE,136,1.0,3.0,83,0.00,,,0.85,Wunderground v.1.15,2013-07-25 04:25:00,
2013-07-24 23:30:00,77.7,72.1,29.99,SE,135,2.0,2.0,83,0.00,,,0.85,Wunderground v.1.15,2013-07-25 04:30:00,
2013-07-24 23:35:00,77.7,72.1,29.99,ESE,121,2.0,2.0,83,0.00,,,0.85,Wunderground v.1.15,2013-07-25 04:35:00,
2013-07-24 23:40:00,77.6,72.0,29.99,ESE,121,2.0,2.0,83,0.00,,,0.85,Wunderground v.1.15,2013-07-25 04:40:00,
2013-07-24 23:50:00,77.4,71.8,29.99,East,96,3.0,3.0,83,0.00,,,0.85,Wunderground v.1.15,2013-07-25 04:50:00,
2013-07-24 23:55:00,77.3,71.7,29.99,East,88,3.0,3.0,83,0.00,,,0.85,Wunderground v.1.15,2013-07-25 04:55:00,